Terminal Aerodrome Forecast
Issued by NWS Twin Cities, MN

Home | Current Version | Previous Version | Graphics & Text | Print | Product List | Glossary On
Versions: 1 2 3 4 5 6 7 8 9 10 11 12 13 14 15 16 17 18 19 20 21 22 23 24 25 26 27 28 29
000
FTUS43 KMPX 222054 AAA
TAFMSP
TAF AMD
KMSP 222054Z 2221/2324 12005KT P6SM FEW250
     FM230900 20003KT P6SM SCT250
     FM231500 20007KT P6SM BKN080 OVC120
     FM232000 16007KT P6SM VCSH OVC070=

USA.gov is the U.S. government's official web portal to all federal, state and local government web resources and services.